Williamsburg, Iowa
Current Conditions -  °F | °C
As of 10:52 AM on Tuesday 27 Jan 2015 (Local Time) from KCID Reporting Station
Overcast Overcast  
Wind Chill: 24°   Ceiling: 1700
Heat Index: 32°   Visibility: 9mi
Dew Point: 27°   Wind: 9mph
Humidity: 82%   Direction: 50°NE
Pressure: 30.18"   Gusts: NA
Location:  41.66°N, 92.01°W
Report Text: KCID 271652Z 05008KT 9SM OVC017 00/M03 A3018 RMK AO2 SLP228 T00001028
Loading
Personal Weather Stations






























Interactive Weather Map New forecast layout! Learn more

10-Day Weather Forecast

Advertisements
Track Severe Weather on mobile